Spokane, WA (99224)

12:25 AM PST on February 08, 2016 (GMT -0800)
Sundance Golf Course Area | | Change Station
CLOSE
Current Station
Personal Weather Station
Location: Nine Mile Falls, WA
Elevation: 1667 ft
Nearby Weather Stations

Elev 1667 ft 47.75 °N, 117.52 °W | Updated 11 minutes ago

Clear
Clear
27.1 °F
Feels Like 27 °F
N
0.0
Wind Variable Wind from ESE

Today
High -- | Low -- °F
--% Chance of Precip.
Yesterday
High -- | Low -- °F
Precip. -- in
Pressure 30.69 in
Visibility 10.0 miles
Clouds Clear
Windchill 27 °F
Dew Point 27 °F
Humidity 99%
Rainfall 0.00 in
Snow Depth Not available.
7:07 AM 5:01 PM
Waning Crescent, 0% visible
METAR KSKA 080758Z AUTO 03007KT 10SM CLR 00/M01 A3061 RMK AO2 SLP392 T00001010 $
Pressure 30.69 in
Visibility 10.0 miles
Clouds Clear
Windchill 27 °F
Dew Point 27 °F
Humidity 99%
Rainfall 0.00 in
Snow Depth Not available.
7:07 AM 5:01 PM
Waning Crescent, 0% visible
METAR KSKA 080758Z AUTO 03007KT 10SM CLR 00/M01 A3061 RMK AO2 SLP392 T00001010 $

10-Day Weather Forecast

Almanac

Astronomy

Feb. 08, 2016 Rise Set
Actual Time
Civil Twilight
Nautical Twilight
Astronomical Twilight
Moon
Length of Visible Light
Length of Day
Tomorrow will be .
, % of the Moon is Illuminated

Today's Extremes

State Highs State Lows

Community

WunderPhotos

Upload Photos

1,891,412 photos uploaded!

WunderBlog® & News

Nearby

Air Quality

  Air Quality AQ Index Pollutant
Not available.

Snow Depth

Station Depth Elevation

Earthquake Activity

City Distance Mag. Time & Date
Minimum magnitude displayed is 2.5.

Coastal Water Temperatures

Place Temperature

Stations

Nearby Weather Stations

Station Location Temp. Windchill Dew Point Humidity Wind Precip. Elev Updated Type
                   

Watches & Warnings

There are currently no watches in effect.